Time;durP1;ratioP1;P1;durP2;ratioP2;P2;SDS_P1;SDS_P2;PMS_P1;PMS_P2;Temp;Humidity;BMP_temperature;BMP_pressure;BME280_temperature;BME280_humidity;BME280_pressure;Samples;Min_cycle;Max_cycle;Signal;HPM_P1;HPM_P2
2022/02/01 00:03:06;;;;;;;16.38;7.85;;;3.00;99.90;;;;;;12546965;28;20584;-81
2022/02/01 00:09:26;;;;;;;14.05;5.18;;;3.10;99.90;;;;;;12534571;28;20562;-81
2022/02/01 00:34:54;;;;;;;12.30;2.45;;;3.30;99.90;;;;;;12549802;28;20094;-81
2022/02/01 00:40:57;;;;;;;16.52;2.45;;;3.40;99.90;;;;;;12552881;28;20432;-82
2022/02/01 00:46:59;;;;;;;12.00;2.20;;;3.40;99.90;;;;;;12539303;28;20093;-80
2022/02/01 00:53:01;;;;;;;21.48;2.58;;;3.40;99.90;;;;;;12542972;28;20047;-81
2022/02/01 00:59:04;;;;;;;23.35;3.90;;;3.40;99.90;;;;;;12543217;28;20053;-82
2022/02/01 01:05:07;;;;;;;19.88;2.53;;;3.40;99.90;;;;;;12533124;28;20354;-80
2022/02/01 01:11:10;;;;;;;26.75;2.72;;;3.30;99.90;;;;;;12533804;28;20534;-79
2022/02/01 01:55:18;;;;;;;31.67;4.47;;;3.10;99.90;;;;;;12547652;28;20054;-80
2022/02/01 02:01:19;;;;;;;26.45;2.90;;;3.00;99.90;;;;;;12532257;28;20374;-81
2022/02/01 02:07:22;;;;;;;25.70;3.55;;;3.00;99.90;;;;;;12538160;28;20115;-79
2022/02/01 02:19:28;;;;;;;22.25;2.80;;;2.90;99.90;;;;;;12555714;28;20113;-80
2022/02/01 02:25:35;;;;;;;21.02;3.28;;;3.00;99.90;;;;;;12535154;28;20071;-80
2022/02/01 02:31:39;;;;;;;19.17;2.33;;;2.90;99.90;;;;;;12555375;28;20044;-79
2022/02/01 02:37:41;;;;;;;23.60;3.40;;;2.80;99.90;;;;;;12553638;28;20113;-80
2022/02/01 02:50:04;;;;;;;26.52;3.70;;;2.60;99.90;;;;;;12551237;28;20064;-80
2022/02/01 02:56:07;;;;;;;32.70;3.65;;;2.60;99.90;;;;;;12560476;28;20194;-83
2022/02/01 03:02:09;;;;;;;23.05;2.75;;;2.60;99.90;;;;;;12541890;28;20075;-80
2022/02/01 03:08:11;;;;;;;16.10;2.60;;;2.50;99.90;;;;;;12532210;28;20163;-80
2022/02/01 03:15:19;;;;;;;21.98;3.85;;;2.40;99.90;;;;;;12537786;28;20045;-79
2022/02/01 03:20:35;;;;;;;16.55;2.65;;;2.30;99.90;;;;;;12549982;28;20101;-80
2022/02/01 03:26:37;;;;;;;22.02;3.20;;;2.30;99.90;;;;;;12536804;28;20240;-81
2022/02/01 03:32:39;;;;;;;18.92;2.47;;;2.30;99.90;;;;;;12550260;28;20385;-83
2022/02/01 03:38:41;;;;;;;22.95;2.42;;;2.30;99.90;;;;;;12548856;28;20061;-80
2022/02/01 03:44:43;;;;;;;21.40;4.63;;;2.20;99.90;;;;;;12538832;28;20106;-79
2022/02/01 03:50:45;;;;;;;24.55;3.28;;;2.30;99.90;;;;;;12548143;28;20071;-83
2022/02/01 03:56:47;;;;;;;20.40;2.33;;;2.30;99.90;;;;;;12530033;28;20072;-82
2022/02/01 04:02:49;;;;;;;23.42;2.15;;;2.40;99.90;;;;;;12554280;28;20489;-82
2022/02/01 04:08:51;;;;;;;20.70;2.40;;;2.40;99.90;;;;;;12549637;28;20044;-82
2022/02/01 04:14:56;;;;;;;14.70;2.03;;;2.30;99.90;;;;;;12532482;28;20478;-81
2022/02/01 04:20:58;;;;;;;;;;;2.30;99.90;;;;;;12546503;28;20080;-83
2022/02/01 04:27:01;;;;;;;15.60;1.80;;;2.30;99.90;;;;;;12537202;28;19938;-82
2022/02/01 04:33:07;;;;;;;21.58;2.35;;;2.20;99.90;;;;;;12546642;28;20056;-82
2022/02/01 04:39:10;;;;;;;19.05;2.50;;;2.20;99.90;;;;;;12526416;28;20560;-82
2022/02/01 04:45:18;;;;;;;17.48;2.42;;;2.10;99.90;;;;;;12528880;28;20093;-82
2022/02/01 04:51:21;;;;;;;14.70;1.73;;;2.20;99.90;;;;;;12534323;28;20071;-82
2022/02/01 04:57:23;;;;;;;19.70;1.90;;;2.10;99.90;;;;;;12527546;28;20064;-81
2022/02/01 05:03:24;;;;;;;16.15;1.92;;;2.20;99.90;;;;;;12526068;28;20098;-81
2022/02/01 05:09:27;;;;;;;25.33;2.55;;;2.10;99.90;;;;;;12547883;28;20405;-81
2022/02/01 05:15:29;;;;;;;16.83;2.35;;;2.20;99.90;;;;;;12541267;28;20076;-81
2022/02/01 05:21:32;;;;;;;19.08;2.15;;;2.30;99.90;;;;;;12530705;28;20045;-81
2022/02/01 05:27:34;;;;;;;16.45;2.38;;;2.20;99.90;;;;;;12528409;28;20049;-82
2022/02/01 05:33:37;;;;;;;21.17;2.30;;;2.10;99.90;;;;;;12528117;28;20053;-81
2022/02/01 05:39:39;;;;;;;17.20;3.17;;;2.30;99.90;;;;;;12547918;28;20503;-83
2022/02/01 05:45:44;;;;;;;13.88;2.13;;;2.30;99.90;;;;;;12525080;28;20045;-82
2022/02/01 05:51:50;;;;;;;20.30;2.38;;;2.30;99.90;;;;;;12548033;28;20041;-82
2022/02/01 05:57:53;;;;;;;21.65;3.28;;;2.40;99.90;;;;;;12529231;28;20408;-82
2022/02/01 06:03:55;;;;;;;15.75;2.00;;;2.30;99.90;;;;;;12533338;28;20495;-82
2022/02/01 06:09:57;;;;;;;21.80;2.63;;;2.40;99.90;;;;;;12544520;28;20064;-80
2022/02/01 06:15:59;;;;;;;24.00;2.92;;;2.40;99.90;;;;;;12528541;28;20503;-79
2022/02/01 06:22:05;;;;;;;10.98;1.95;;;2.40;99.90;;;;;;12524707;28;20569;-84
2022/02/01 06:28:07;;;;;;;13.63;1.80;;;2.50;99.90;;;;;;12530835;28;20068;-80
2022/02/01 06:34:09;;;;;;;14.50;1.80;;;2.40;99.90;;;;;;12522202;28;20120;-79
2022/02/01 06:40:11;;;;;;;21.23;2.70;;;2.40;99.90;;;;;;12542686;28;20053;-79
2022/02/01 06:46:14;;;;;;;16.00;2.00;;;2.50;99.90;;;;;;12531794;28;20121;-83
2022/02/01 06:52:16;;;;;;;16.33;2.50;;;2.50;99.90;;;;;;12535096;28;20064;-79
2022/02/01 06:58:18;;;;;;;16.40;2.30;;;2.70;99.90;;;;;;12529596;28;20053;-79
2022/02/01 07:04:20;;;;;;;18.83;2.13;;;2.70;99.90;;;;;;12549450;28;20040;-82
2022/02/01 07:10:22;;;;;;;16.25;2.47;;;2.70;99.90;;;;;;12549189;28;20666;-82
2022/02/01 07:16:24;;;;;;;13.70;1.95;;;2.70;99.90;;;;;;12532469;28;20136;-82
2022/02/01 07:22:31;;;;;;;17.52;2.88;;;2.80;99.90;;;;;;12541039;28;20057;-82
2022/02/01 07:28:33;;;;;;;7.73;1.80;;;2.70;99.90;;;;;;12574451;28;20134;-81
2022/02/01 07:34:35;;;;;;;14.20;1.90;;;2.80;99.90;;;;;;12579744;28;20041;-81
2022/02/01 07:40:38;;;;;;;14.95;2.85;;;2.80;99.90;;;;;;12575302;28;20048;-84
2022/02/01 07:46:42;;;;;;;11.05;2.30;;;2.80;99.90;;;;;;12578174;28;20063;-84
2022/02/01 07:52:44;;;;;;;13.32;2.20;;;2.90;99.90;;;;;;12552318;28;20055;-83
2022/02/01 07:58:46;;;;;;;14.35;2.13;;;2.90;99.90;;;;;;12552309;28;20274;-82
2022/02/01 08:04:48;;;;;;;17.23;2.85;;;3.00;99.90;;;;;;12553754;28;20048;-82
2022/02/01 08:10:54;;;;;;;17.08;2.88;;;3.00;99.90;;;;;;12533227;28;20453;-82
2022/02/01 08:17:02;;;;;;;13.20;3.35;;;3.00;99.90;;;;;;12530589;28;20519;-82
2022/02/01 08:23:04;;;;;;;13.48;2.30;;;3.00;99.90;;;;;;12523427;28;20102;-83
2022/02/01 08:29:07;;;;;;;18.98;2.92;;;3.10;99.90;;;;;;12530384;28;20499;-81
2022/02/01 08:35:19;;;;;;;22.52;3.55;;;3.10;99.90;;;;;;12550461;28;20550;-82
2022/02/01 08:41:42;;;;;;;15.98;2.63;;;3.20;99.90;;;;;;12532650;28;20048;-82
2022/02/01 08:47:44;;;;;;;12.05;2.97;;;3.20;99.90;;;;;;12526259;28;20053;-82
2022/02/01 08:53:53;;;;;;;14.82;2.97;;;3.20;99.90;;;;;;12525316;28;20071;-83
2022/02/01 09:00:03;;;;;;;14.73;4.40;;;3.30;99.90;;;;;;12529290;28;20059;-83
2022/02/01 09:06:05;;;;;;;21.30;6.50;;;3.40;99.90;;;;;;12525169;28;20048;-83
2022/02/01 09:12:08;;;;;;;18.58;5.85;;;3.40;99.90;;;;;;12545504;28;20082;-82
2022/02/01 09:18:15;;;;;;;21.88;6.32;;;3.40;99.90;;;;;;12530410;28;20123;-83
2022/02/01 09:24:17;;;;;;;19.77;7.55;;;3.30;99.90;;;;;;12527521;28;20052;-83
2022/02/01 09:30:22;;;;;;;20.98;8.98;;;3.30;99.90;;;;;;12532351;28;20075;-83
2022/02/01 09:36:25;;;;;;;16.85;9.73;;;3.30;99.90;;;;;;12545669;28;20044;-85
2022/02/01 09:42:28;;;;;;;18.02;9.43;;;3.30;99.90;;;;;;12523688;28;20049;-82
2022/02/01 09:48:31;;;;;;;16.73;9.35;;;3.40;99.90;;;;;;12528342;28;20049;-84
2022/02/01 09:54:33;;;;;;;22.52;10.10;;;3.30;99.90;;;;;;12540998;28;20044;-83
2022/02/01 10:00:37;;;;;;;17.48;10.45;;;3.40;99.90;;;;;;12527337;28;20117;-86
2022/02/01 10:06:43;;;;;;;17.73;10.93;;;3.30;99.90;;;;;;12532815;28;20123;-84
2022/02/01 10:13:16;;;;;;;18.48;11.20;;;3.30;99.90;;;;;;12527003;28;20052;-83
2022/02/01 10:19:19;;;;;;;21.02;10.48;;;3.30;99.90;;;;;;12534120;28;20056;-84
2022/02/01 10:25:28;;;;;;;17.67;11.05;;;3.30;99.90;;;;;;12538393;28;20058;-84
2022/02/01 10:31:43;;;;;;;18.33;11.55;;;3.30;99.90;;;;;;12552650;28;20119;-82
2022/02/01 10:37:55;;;;;;;16.88;10.80;;;3.40;99.90;;;;;;12550795;28;20056;-84
2022/02/01 10:43:59;;;;;;;19.30;12.20;;;3.40;99.90;;;;;;12536522;28;20067;-86
2022/02/01 10:50:13;;;;;;;18.85;11.57;;;3.40;99.90;;;;;;12534159;28;20053;-84
2022/02/01 10:56:17;;;;;;;15.98;10.05;;;3.50;99.90;;;;;;12537860;28;20088;-83
2022/02/01 11:02:19;;;;;;;19.52;11.98;;;3.60;99.90;;;;;;12543371;28;20048;-83
2022/02/01 11:08:29;;;;;;;16.58;10.73;;;3.60;99.90;;;;;;12546093;28;20041;-83
2022/02/01 11:14:41;;;;;;;13.15;9.93;;;3.70;99.90;;;;;;12530201;28;20041;-82
2022/02/01 11:20:47;;;;;;;14.90;10.13;;;3.80;99.90;;;;;;12548813;28;20076;-83
2022/02/01 11:27:03;;;;;;;14.02;9.75;;;3.80;99.90;;;;;;12543824;28;20067;-82
2022/02/01 11:33:07;;;;;;;14.60;9.02;;;3.90;99.90;;;;;;12534373;28;20048;-85
2022/02/01 11:39:12;;;;;;;13.52;9.18;;;3.90;99.90;;;;;;12538377;28;20317;-83
2022/02/01 11:45:25;;;;;;;10.82;7.63;;;4.00;99.90;;;;;;12549680;28;20075;-83
2022/02/01 11:51:28;;;;;;;10.27;7.85;;;4.00;99.90;;;;;;12549489;28;20071;-85
2022/02/01 11:57:30;;;;;;;10.88;7.28;;;4.10;99.90;;;;;;12545619;28;20053;-84
2022/02/01 12:03:39;;;;;;;8.68;6.53;;;4.10;99.90;;;;;;12563019;28;20636;-85
2022/02/01 12:09:41;;;;;;;8.68;6.30;;;4.10;99.90;;;;;;12543049;28;20056;-84
2022/02/01 12:15:45;;;;;;;7.72;6.50;;;4.20;99.90;;;;;;12541984;28;20056;-83
2022/02/01 12:22:29;;;;;;;8.63;6.00;;;4.30;99.90;;;;;;12549026;28;20075;-82
2022/02/01 12:28:34;;;;;;;8.13;6.20;;;4.40;99.90;;;;;;12487756;28;20049;-85
2022/02/01 12:34:37;;;;;;;8.47;6.43;;;4.50;99.90;;;;;;12531494;28;20932;-84
2022/02/01 12:40:39;;;;;;;8.30;6.53;;;4.50;99.90;;;;;;12546695;28;20091;-86
2022/02/01 12:46:51;;;;;;;7.40;6.10;;;4.60;99.90;;;;;;12527049;28;20136;-84
2022/02/01 12:53:17;;;;;;;7.20;5.55;;;4.60;99.90;;;;;;12529903;28;20053;-85
2022/02/01 12:59:21;;;;;;;7.30;5.75;;;4.70;99.90;;;;;;12524647;28;20147;-85
2022/02/01 13:05:25;;;;;;;7.38;5.22;;;4.80;99.90;;;;;;12529782;28;20390;-85
2022/02/01 13:18:10;;;;;;;7.53;4.60;;;4.90;99.90;;;;;;12544054;28;20168;-85
2022/02/01 13:24:11;;;;;;;5.15;3.63;;;4.90;99.90;;;;;;12550109;28;20068;-86
2022/02/01 13:30:35;;;;;;;5.22;3.55;;;5.00;99.90;;;;;;12538036;28;20048;-85
2022/02/01 13:37:00;;;;;;;5.73;3.23;;;5.10;99.90;;;;;;12547198;28;20311;-83
2022/02/01 13:43:16;;;;;;;;;;;5.10;99.90;;;;;;12522633;28;20366;-86
2022/02/01 13:49:17;;;;;;;;;;;5.20;99.90;;;;;;12465668;28;20344;-84
2022/02/01 13:55:34;;;;;;;4.28;1.98;;;5.20;99.90;;;;;;12461219;28;19999;-86
2022/02/01 14:01:40;;;;;;;2.65;1.77;;;5.30;99.90;;;;;;12453428;28;20057;-84
2022/02/01 14:39:12;;;;;;;3.08;1.88;;;5.80;99.90;;;;;;12455534;28;20096;-86
2022/02/01 14:45:16;;;;;;;3.83;1.90;;;5.90;99.90;;;;;;12475576;28;20671;-83
2022/02/01 14:51:19;;;;;;;2.45;1.45;;;6.00;99.90;;;;;;12539701;28;20106;-84
2022/02/01 15:16:09;;;;;;;3.40;1.70;;;6.40;99.90;;;;;;12577056;28;20045;-84
2022/02/01 15:22:11;;;;;;;4.10;1.98;;;6.50;99.90;;;;;;12538882;28;20060;-85
2022/02/01 15:28:19;;;;;;;3.83;1.63;;;6.50;99.90;;;;;;12566923;28;20048;-84
2022/02/01 15:34:22;;;;;;;3.15;1.70;;;6.60;99.90;;;;;;12552575;28;20668;-84
2022/02/01 15:59:13;;;;;;;9.48;3.22;;;6.80;99.90;;;;;;12554923;28;20057;-85
2022/02/01 16:05:35;;;;;;;8.07;3.17;;;6.80;99.90;;;;;;12548144;28;20051;-84
2022/02/01 16:11:44;;;;;;;10.25;3.05;;;6.90;99.90;;;;;;12554575;28;20075;-81
2022/02/01 16:17:46;;;;;;;;;;;6.90;99.90;;;;;;12552275;28;20072;-84
2022/02/01 16:23:48;;;;;;;10.30;3.60;;;6.90;99.90;;;;;;12529897;28;20974;-85
2022/02/01 16:29:50;;;;;;;8.57;3.35;;;6.90;99.90;;;;;;12538293;28;20143;-85
2022/02/01 16:35:54;;;;;;;9.25;3.45;;;7.00;99.90;;;;;;12545571;28;20152;-83
2022/02/01 16:42:03;;;;;;;17.95;3.60;;;7.00;99.90;;;;;;12550708;28;20051;-84
2022/02/01 16:48:25;;;;;;;11.60;3.58;;;7.00;99.90;;;;;;12545763;28;20056;-85
2022/02/01 16:54:41;;;;;;;13.98;3.58;;;7.20;99.90;;;;;;12539445;28;20041;-87
2022/02/01 17:00:43;;;;;;;18.88;3.95;;;7.20;99.90;;;;;;12538923;28;20052;-86
2022/02/01 17:06:46;;;;;;;26.27;4.10;;;7.20;99.90;;;;;;12552429;28;20048;-86
2022/02/01 17:13:03;;;;;;;17.02;3.58;;;7.20;99.90;;;;;;12531970;28;20041;-85
2022/02/01 17:25:36;;;;;;;23.70;3.92;;;7.30;99.90;;;;;;12508971;28;20135;-85
2022/02/01 17:31:39;;;;;;;18.20;3.63;;;7.20;99.90;;;;;;12543824;28;20070;-85
2022/02/01 17:37:41;;;;;;;18.88;3.15;;;7.20;99.90;;;;;;12525407;28;20072;-85
2022/02/01 17:43:44;;;;;;;13.80;2.85;;;7.20;99.90;;;;;;12531537;28;20124;-84
2022/02/01 17:49:46;;;;;;;12.45;2.20;;;7.20;99.90;;;;;;12531498;28;20129;-86
2022/02/01 17:55:49;;;;;;;18.98;3.63;;;7.20;99.90;;;;;;12535184;28;20229;-85
2022/02/01 18:01:55;;;;;;;12.32;2.35;;;7.10;99.90;;;;;;12546900;28;20084;-87
2022/02/01 18:07:57;;;;;;;16.05;2.35;;;7.10;99.90;;;;;;12549147;28;20037;-85
2022/02/01 18:14:19;;;;;;;20.88;3.58;;;7.00;99.90;;;;;;12545691;28;20106;-85
2022/02/01 18:20:23;;;;;;;15.63;2.72;;;6.90;99.90;;;;;;12548399;28;20048;-85
2022/02/01 18:26:26;;;;;;;16.63;2.60;;;7.00;99.90;;;;;;12529493;28;20132;-86
2022/02/01 18:32:28;;;;;;;14.90;2.65;;;7.00;99.90;;;;;;12551290;28;20052;-85
2022/02/01 18:38:32;;;;;;;15.02;2.95;;;7.20;99.90;;;;;;12540905;28;20121;-85
2022/02/01 18:44:37;;;;;;;17.48;2.72;;;7.10;99.90;;;;;;12544922;28;20085;-86
2022/02/01 18:51:00;;;;;;;17.35;2.80;;;6.90;99.90;;;;;;12555947;28;20079;-84
2022/02/01 18:57:09;;;;;;;17.42;2.63;;;7.00;99.90;;;;;;12540358;28;20053;-84
2022/02/01 19:15:58;;;;;;;18.80;2.67;;;6.70;99.90;;;;;;12557424;28;20092;-86
2022/02/01 19:22:01;;;;;;;8.70;1.55;;;6.60;99.90;;;;;;12535953;28;20116;-85
2022/02/01 19:28:03;;;;;;;12.38;1.67;;;5.50;99.90;;;;;;12536990;28;20055;-87
2022/02/01 19:34:09;;;;;;;5.28;0.93;;;5.10;99.90;;;;;;12539854;28;20114;-85
2022/02/01 19:40:12;;;;;;;7.75;1.42;;;4.70;99.90;;;;;;12548983;28;20201;-86
2022/02/01 19:46:20;;;;;;;3.47;0.93;;;4.80;99.90;;;;;;12572564;28;20060;-84
2022/02/01 19:52:24;;;;;;;13.10;1.42;;;4.90;99.90;;;;;;12551803;28;20052;-84
2022/02/01 19:58:33;;;;;;;10.63;2.10;;;4.90;99.90;;;;;;12537060;28;20131;-85
2022/02/01 20:04:36;;;;;;;26.33;3.15;;;5.10;99.90;;;;;;12554444;28;20044;-86
2022/02/01 20:10:44;;;;;;;25.33;3.23;;;5.60;99.90;;;;;;12571496;28;20057;-84
2022/02/01 20:16:46;;;;;;;29.95;4.03;;;5.80;99.90;;;;;;12562688;28;20614;-83
2022/02/01 20:22:58;;;;;;;32.10;4.53;;;6.00;99.90;;;;;;12540530;28;20072;-84
2022/02/01 20:29:00;;;;;;;28.42;4.40;;;6.30;99.90;;;;;;12559984;28;20061;-85
2022/02/01 20:35:03;;;;;;;19.50;3.63;;;6.40;99.90;;;;;;12546395;28;20143;-84
2022/02/01 20:41:05;;;;;;;12.30;2.47;;;6.40;99.90;;;;;;12544577;28;20615;-91
2022/02/01 20:47:07;;;;;;;14.98;2.58;;;6.30;99.90;;;;;;12547857;28;20048;-85
2022/02/01 20:53:09;;;;;;;28.85;3.83;;;5.90;99.90;;;;;;12537647;28;20462;-84
2022/02/01 20:59:11;;;;;;;13.77;2.17;;;5.80;99.90;;;;;;12551962;28;20501;-86
2022/02/01 21:05:14;;;;;;;18.48;2.67;;;5.60;99.90;;;;;;12535260;28;20069;-86
2022/02/01 21:11:17;;;;;;;18.63;3.23;;;5.50;99.90;;;;;;12538070;28;20072;-84
2022/02/01 21:17:20;;;;;;;14.52;2.95;;;5.40;99.90;;;;;;12550061;28;20052;-85
2022/02/01 21:23:22;;;;;;;15.55;2.47;;;5.50;99.90;;;;;;12534432;28;20605;-85
2022/02/01 21:29:25;;;;;;;25.73;3.45;;;5.70;99.90;;;;;;12545530;28;20052;-84
2022/02/01 21:35:27;;;;;;;19.45;2.65;;;5.70;99.90;;;;;;12531188;28;20481;-83
2022/02/01 21:41:29;;;;;;;19.13;3.15;;;5.70;99.90;;;;;;12545743;28;20048;-88
2022/02/01 21:47:32;;;;;;;21.77;3.55;;;5.70;99.90;;;;;;12535596;28;20057;-85
2022/02/01 21:53:34;;;;;;;19.42;3.15;;;5.90;99.90;;;;;;12550347;28;20109;-86
2022/02/01 21:59:37;;;;;;;26.25;3.40;;;6.10;99.90;;;;;;12537495;28;20200;-85
2022/02/01 22:05:40;;;;;;;21.23;2.58;;;6.30;99.90;;;;;;12540058;28;20479;-85
2022/02/01 22:11:42;;;;;;;14.70;2.58;;;6.20;99.90;;;;;;12543457;28;20083;-84
2022/02/01 22:17:44;;;;;;;15.00;2.20;;;6.20;99.90;;;;;;12542837;28;20143;-82
2022/02/01 22:24:08;;;;;;;24.55;3.63;;;6.00;99.90;;;;;;12553239;28;20052;-85
2022/02/01 22:30:11;;;;;;;20.15;3.13;;;6.00;99.90;;;;;;12553248;28;20049;-87
2022/02/01 22:36:14;;;;;;;18.45;2.78;;;6.10;99.90;;;;;;12559612;28;20091;-84
2022/02/01 22:42:16;;;;;;;16.63;3.30;;;6.10;99.90;;;;;;12541424;28;20049;-87
2022/02/01 22:48:18;;;;;;;21.80;3.92;;;6.20;99.90;;;;;;12554956;28;20077;-82
2022/02/01 22:54:25;;;;;;;21.45;3.35;;;6.20;99.90;;;;;;12551408;28;20150;-82
2022/02/01 23:00:47;;;;;;;16.70;2.92;;;6.20;99.90;;;;;;12545635;28;20048;-85
2022/02/01 23:06:50;;;;;;;23.25;4.10;;;6.10;99.90;;;;;;12580872;28;20056;-86
2022/02/01 23:19:19;;;;;;;15.63;3.40;;;6.00;99.90;;;;;;12538339;28;20056;-84
2022/02/01 23:25:25;;;;;;;21.52;4.13;;;6.10;99.90;;;;;;12568108;28;20041;-82
2022/02/01 23:31:39;;;;;;;17.90;2.22;;;6.10;99.90;;;;;;12553909;28;20160;-83
2022/02/01 23:50:08;;;;;;;19.83;3.15;;;5.80;99.90;;;;;;12556702;28;20044;-83
2022/02/01 23:56:19;;;;;;;28.70;4.55;;;5.70;99.90;;;;;;12540315;28;20049;-87
